createdAt,value
2017-09-03T00:00:42.257Z,64.30
2017-09-03T00:03:09.815Z,64.30
2017-09-03T00:05:37.383Z,64.50
2017-09-03T00:08:04.942Z,64.50
2017-09-03T00:10:32.507Z,64.70
2017-09-03T00:13:00.053Z,64.70
2017-09-03T00:15:27.536Z,64.70
2017-09-03T00:17:55.065Z,64.70
2017-09-03T00:20:22.538Z,65.00
2017-09-03T00:22:50.020Z,65.10
2017-09-03T00:25:17.499Z,65.10
2017-09-03T00:27:44.976Z,65.30
2017-09-03T00:30:12.491Z,65.80
2017-09-03T00:32:40.018Z,66.00
2017-09-03T00:35:07.571Z,66.00
2017-09-03T00:37:35.090Z,66.30
2017-09-03T00:40:02.585Z,66.80
2017-09-03T00:42:30.143Z,66.70
2017-09-03T00:44:57.715Z,66.90
2017-09-03T00:47:25.194Z,66.90
2017-09-03T00:49:52.731Z,66.70
2017-09-03T00:52:20.287Z,67.00
2017-09-03T00:54:47.790Z,67.80
2017-09-03T00:57:15.257Z,67.20
2017-09-03T00:59:42.739Z,67.10
2017-09-03T01:02:10.321Z,66.90
2017-09-03T01:04:37.783Z,67.20
2017-09-03T01:07:05.339Z,67.10
2017-09-03T01:09:33.607Z,67.50
2017-09-03T01:12:01.067Z,67.30
2017-09-03T01:14:28.521Z,67.50
2017-09-03T01:16:55.989Z,67.90
2017-09-03T01:19:23.535Z,68.60
2017-09-03T01:21:51.100Z,68.30
2017-09-03T01:24:18.646Z,68.30
2017-09-03T01:26:46.258Z,68.20
2017-09-03T01:29:13.762Z,68.60
2017-09-03T01:31:41.376Z,68.80
2017-09-03T01:34:08.834Z,68.80
2017-09-03T01:36:36.316Z,68.70
2017-09-03T01:39:03.781Z,68.50
2017-09-03T01:41:31.242Z,68.60
2017-09-03T01:43:58.726Z,68.80
2017-09-03T01:46:26.266Z,68.90
2017-09-03T01:48:53.819Z,69.20
2017-09-03T01:51:21.440Z,69.00
2017-09-03T01:53:48.919Z,68.90
2017-09-03T01:56:16.411Z,69.20
2017-09-03T01:58:43.892Z,69.30
2017-09-03T02:01:11.354Z,68.40
2017-09-03T02:03:38.878Z,69.00
2017-09-03T02:06:06.426Z,69.10
2017-09-03T02:08:33.989Z,68.90
2017-09-03T02:11:01.547Z,69.10
2017-09-03T02:13:29.093Z,69.40
2017-09-03T02:15:56.574Z,69.10
2017-09-03T02:18:24.128Z,69.40
2017-09-03T02:20:51.629Z,69.40
2017-09-03T02:23:19.143Z,69.60
2017-09-03T02:25:46.613Z,69.70
2017-09-03T02:28:14.142Z,70.40
2017-09-03T02:30:41.743Z,69.60
2017-09-03T02:33:09.277Z,69.70
2017-09-03T02:35:36.742Z,69.70
2017-09-03T02:38:04.300Z,69.80
2017-09-03T02:40:31.778Z,69.80
2017-09-03T02:42:59.299Z,69.70
2017-09-03T02:45:26.860Z,69.70
2017-09-03T02:47:54.415Z,69.70
2017-09-03T02:50:22.007Z,69.90
2017-09-03T02:52:49.532Z,69.90
2017-09-03T02:55:17.000Z,69.80
2017-09-03T02:57:44.470Z,69.80
2017-09-03T03:00:12.016Z,70.60
2017-09-03T03:02:39.551Z,69.90
2017-09-03T03:05:07.020Z,70.30
2017-09-03T03:07:34.496Z,69.80
2017-09-03T03:10:01.970Z,69.90
2017-09-03T03:12:29.420Z,70.30
2017-09-03T03:14:57.002Z,70.10
2017-09-03T03:17:24.512Z,70.20
2017-09-03T03:19:52.067Z,70.30
2017-09-03T03:22:19.533Z,70.20
2017-09-03T03:24:46.996Z,70.00
2017-09-03T03:27:14.466Z,70.00
2017-09-03T03:29:41.943Z,69.90
2017-09-03T03:32:09.449Z,70.30
2017-09-03T03:34:36.910Z,70.40
2017-09-03T03:37:04.524Z,70.30
2017-09-03T03:39:32.039Z,70.70
2017-09-03T03:41:59.534Z,70.40
2017-09-03T03:44:27.037Z,70.50
2017-09-03T03:46:54.602Z,70.30
2017-09-03T03:49:22.163Z,70.50
2017-09-03T03:51:49.709Z,70.50
2017-09-03T03:54:17.279Z,70.70
2017-09-03T03:56:44.743Z,70.40
2017-09-03T03:59:12.301Z,71.30
2017-09-03T04:01:39.765Z,70.80
2017-09-03T04:04:07.245Z,71.10
2017-09-03T04:06:34.761Z,71.20
2017-09-03T04:09:02.324Z,71.20
2017-09-03T04:11:29.879Z,71.70
2017-09-03T04:13:57.349Z,71.20
2017-09-03T04:16:24.842Z,71.00
2017-09-03T04:18:52.329Z,71.30
2017-09-03T04:21:19.811Z,71.10
2017-09-03T04:23:47.363Z,71.20
2017-09-03T04:26:14.827Z,71.00
2017-09-03T04:28:42.386Z,70.70
2017-09-03T04:31:09.968Z,70.80
2017-09-03T04:33:37.526Z,70.80
2017-09-03T04:36:05.015Z,70.50
2017-09-03T04:38:32.504Z,70.60
2017-09-03T04:41:00.066Z,70.80
2017-09-03T04:43:27.544Z,70.80
2017-09-03T04:45:55.022Z,70.70
2017-09-03T04:48:22.548Z,70.80
2017-09-03T04:50:50.013Z,70.80
2017-09-03T04:53:17.495Z,70.50
2017-09-03T04:55:45.066Z,71.00
2017-09-03T04:58:12.579Z,71.00
2017-09-03T05:00:40.055Z,70.60
2017-09-03T05:03:07.543Z,70.70
2017-09-03T05:05:35.042Z,70.70
2017-09-03T05:08:02.596Z,70.80
2017-09-03T05:10:30.082Z,70.00
2017-09-03T05:12:57.551Z,71.50
2017-09-03T05:15:25.128Z,70.70
2017-09-03T05:17:52.643Z,70.70
2017-09-03T05:20:20.122Z,70.80
2017-09-03T05:22:47.582Z,70.90
2017-09-03T05:25:15.061Z,70.80
2017-09-03T05:27:42.544Z,70.90
2017-09-03T05:30:10.124Z,70.80
2017-09-03T05:32:37.595Z,70.60
2017-09-03T05:35:05.078Z,71.70
2017-09-03T05:37:32.595Z,71.10
2017-09-03T05:40:00.061Z,71.00
2017-09-03T05:42:27.540Z,70.90
2017-09-03T05:44:55.068Z,71.00
2017-09-03T05:47:22.618Z,70.70
2017-09-03T05:49:50.095Z,70.90
2017-09-03T05:52:17.693Z,70.90
2017-09-03T05:54:45.172Z,71.20
2017-09-03T05:57:12.646Z,70.90
2017-09-03T05:59:40.130Z,70.80
2017-09-03T06:02:07.665Z,71.70
2017-09-03T06:04:35.132Z,70.80
2017-09-03T06:07:02.679Z,70.70
2017-09-03T06:09:30.238Z,70.50
2017-09-03T06:11:57.706Z,70.40
2017-09-03T06:14:25.251Z,70.50
2017-09-03T06:16:52.719Z,71.30
2017-09-03T06:19:20.275Z,70.20
2017-09-03T06:21:47.747Z,70.30
2017-09-03T06:24:15.286Z,70.10
2017-09-03T06:26:42.768Z,70.30
2017-09-03T06:29:10.295Z,70.00
2017-09-03T06:31:37.758Z,69.80
2017-09-03T06:34:05.231Z,69.60
2017-09-03T06:36:32.695Z,69.40
2017-09-03T06:39:00.295Z,69.30
2017-09-03T06:41:27.782Z,69.00
2017-09-03T06:43:55.346Z,69.30
2017-09-03T06:46:22.856Z,69.10
2017-09-03T06:48:50.362Z,69.20
2017-09-03T06:51:17.822Z,69.30
2017-09-03T06:53:45.392Z,69.40
2017-09-03T06:56:12.949Z,69.20
2017-09-03T06:58:40.428Z,69.60
2017-09-03T07:01:07.894Z,69.90
2017-09-03T07:03:35.401Z,70.10
2017-09-03T07:06:02.973Z,70.20
2017-09-03T07:08:30.444Z,70.40
2017-09-03T07:10:57.915Z,69.90
2017-09-03T07:13:25.442Z,70.10
2017-09-03T07:15:53.007Z,69.90
2017-09-03T07:18:20.466Z,69.30
2017-09-03T07:20:48.698Z,68.30
2017-09-03T07:23:16.184Z,68.10
2017-09-03T07:25:43.649Z,67.90
2017-09-03T07:28:11.209Z,67.70
2017-09-03T07:30:38.673Z,67.80
2017-09-03T07:33:06.151Z,67.60
2017-09-03T07:35:33.635Z,66.80
2017-09-03T07:38:01.106Z,66.70
2017-09-03T07:40:28.581Z,66.90
2017-09-03T07:42:56.060Z,66.20
2017-09-03T07:45:23.608Z,66.60
2017-09-03T07:47:51.878Z,66.20
2017-09-03T07:50:19.355Z,66.00
2017-09-03T07:52:46.813Z,65.60
2017-09-03T07:55:14.276Z,65.40
2017-09-03T07:57:41.806Z,64.40
2017-09-03T08:00:09.354Z,65.00
2017-09-03T08:02:36.831Z,64.40
2017-09-03T08:05:04.395Z,63.50
2017-09-03T08:07:31.855Z,63.80
2017-09-03T08:09:59.404Z,63.30
2017-09-03T08:12:26.880Z,62.80
2017-09-03T08:14:54.413Z,62.70
2017-09-03T08:17:21.968Z,63.70
2017-09-03T08:19:49.537Z,62.50
2017-09-03T08:22:17.171Z,61.70
2017-09-03T08:24:44.712Z,62.80
2017-09-03T08:27:12.190Z,62.00
2017-09-03T08:29:39.753Z,60.20
2017-09-03T08:32:07.286Z,62.80
2017-09-03T08:34:34.763Z,61.00
2017-09-03T08:37:02.228Z,60.00
2017-09-03T08:39:29.849Z,60.30
2017-09-03T08:41:57.396Z,59.80
2017-09-03T08:44:25.007Z,60.30
2017-09-03T08:46:52.571Z,61.20
2017-09-03T08:49:20.124Z,60.70
2017-09-03T08:51:47.740Z,59.60
2017-09-03T08:54:15.207Z,59.20
2017-09-03T08:56:42.697Z,58.60
2017-09-03T08:59:10.275Z,58.10
2017-09-03T09:01:37.827Z,57.50
2017-09-03T09:04:05.386Z,57.50
2017-09-03T09:06:32.841Z,58.60
2017-09-03T09:09:00.445Z,56.80
2017-09-03T09:11:27.932Z,56.90
2017-09-03T09:13:55.393Z,57.50
2017-09-03T09:16:22.854Z,58.30
2017-09-03T09:18:50.432Z,57.80
2017-09-03T09:21:17.937Z,58.50
2017-09-03T09:23:45.444Z,59.90
2017-09-03T09:26:12.900Z,58.60
2017-09-03T09:28:40.357Z,58.80
2017-09-03T09:31:07.964Z,57.50
2017-09-03T09:33:35.523Z,57.20
2017-09-03T09:36:03.000Z,56.60
2017-09-03T09:38:30.582Z,55.30
2017-09-03T09:40:58.152Z,54.40
2017-09-03T09:43:25.676Z,54.70
2017-09-03T09:45:53.133Z,54.00
2017-09-03T09:48:20.637Z,55.50
2017-09-03T09:50:48.326Z,55.50
2017-09-03T09:53:15.807Z,56.20
2017-09-03T09:55:43.272Z,56.00
2017-09-03T09:58:10.734Z,56.20
2017-09-03T10:00:38.190Z,57.20
2017-09-03T10:03:05.665Z,55.80
2017-09-03T10:05:33.147Z,55.70
2017-09-03T10:08:00.610Z,55.20
2017-09-03T10:10:28.125Z,54.60
2017-09-03T10:12:55.704Z,54.70
2017-09-03T10:15:23.247Z,54.30
2017-09-03T10:17:50.727Z,54.20
2017-09-03T10:20:18.266Z,54.10
2017-09-03T10:22:45.730Z,54.60
2017-09-03T10:25:13.194Z,54.20
2017-09-03T10:27:40.719Z,52.50
2017-09-03T10:30:08.303Z,52.50
2017-09-03T10:32:35.805Z,52.20
2017-09-03T10:35:03.277Z,52.20
2017-09-03T10:37:30.733Z,53.80
2017-09-03T10:39:58.229Z,54.40
2017-09-03T10:42:25.688Z,51.70
2017-09-03T10:44:53.187Z,52.50
2017-09-03T10:47:20.646Z,50.80
2017-09-03T10:49:48.141Z,50.90
2017-09-03T10:52:15.639Z,50.20
2017-09-03T10:54:43.876Z,49.50
2017-09-03T10:57:11.341Z,49.50
2017-09-03T10:59:39.723Z,50.40
2017-09-03T11:02:07.184Z,53.80
2017-09-03T11:04:34.658Z,55.50
2017-09-03T11:07:02.127Z,56.50
2017-09-03T11:09:29.592Z,57.70
2017-09-03T11:11:57.100Z,57.30
2017-09-03T11:14:24.667Z,57.90
2017-09-03T11:16:52.143Z,58.90
2017-09-03T11:19:19.633Z,58.30
2017-09-03T11:21:47.103Z,58.70
2017-09-03T11:24:14.553Z,59.40
2017-09-03T11:26:42.018Z,59.60
2017-09-03T11:29:09.502Z,60.10
2017-09-03T11:31:36.988Z,59.90
2017-09-03T11:34:04.629Z,61.90
2017-09-03T11:39:06.108Z,64.70
2017-09-03T11:41:33.569Z,63.20
2017-09-03T11:44:01.021Z,63.70
2017-09-03T11:46:28.478Z,60.40
2017-09-03T11:48:55.947Z,58.50
2017-09-03T11:51:23.422Z,58.50
2017-09-03T11:53:50.897Z,58.00
2017-09-03T11:56:18.370Z,56.20
2017-09-03T11:58:45.833Z,58.20
2017-09-03T12:01:13.393Z,55.00
2017-09-03T12:03:40.859Z,55.20
2017-09-03T12:06:08.535Z,54.60
2017-09-03T12:08:36.010Z,56.00
2017-09-03T12:11:03.582Z,53.10
2017-09-03T12:13:31.102Z,53.20
2017-09-03T12:15:58.603Z,53.00
2017-09-03T12:18:26.096Z,53.20
2017-09-03T12:20:53.582Z,53.20
2017-09-03T12:23:21.070Z,54.50
2017-09-03T12:25:48.669Z,51.90
2017-09-03T12:28:16.234Z,50.80
2017-09-03T12:30:43.702Z,51.80
2017-09-03T12:33:11.263Z,51.80
2017-09-03T12:35:38.867Z,49.70
2017-09-03T12:38:06.331Z,49.10
2017-09-03T12:40:33.879Z,49.00
2017-09-03T12:43:01.350Z,50.20
2017-09-03T12:45:28.838Z,50.00
2017-09-03T12:47:56.398Z,50.00
2017-09-03T12:50:23.962Z,51.80
2017-09-03T12:52:51.455Z,49.50
2017-09-03T12:55:18.991Z,49.10
2017-09-03T12:57:46.454Z,48.90
2017-09-03T13:00:13.914Z,45.60
2017-09-03T13:02:41.380Z,47.40
2017-09-03T13:05:08.943Z,47.90
2017-09-03T13:07:36.457Z,48.70
2017-09-03T13:10:03.950Z,50.00
2017-09-03T13:12:31.406Z,49.90
2017-09-03T13:14:58.876Z,47.40
2017-09-03T13:17:26.374Z,48.30
2017-09-03T13:19:53.846Z,48.50
2017-09-03T13:22:21.400Z,49.30
2017-09-03T13:24:48.865Z,49.00
2017-09-03T13:27:16.334Z,50.40
2017-09-03T13:29:43.801Z,48.30
2017-09-03T13:32:11.343Z,48.80
2017-09-03T13:34:38.806Z,48.10
2017-09-03T13:37:06.351Z,45.10
2017-09-03T13:39:33.907Z,46.30
2017-09-03T13:42:01.366Z,48.40
2017-09-03T13:44:28.926Z,47.90
2017-09-03T13:46:56.477Z,47.10
2017-09-03T13:49:23.945Z,45.20
2017-09-03T13:51:51.403Z,44.10
2017-09-03T13:54:18.875Z,45.20
2017-09-03T13:56:46.329Z,45.40
2017-09-03T13:59:13.798Z,47.20
2017-09-03T14:01:41.317Z,48.30
2017-09-03T14:04:08.874Z,47.20
2017-09-03T14:06:36.434Z,46.40
2017-09-03T14:09:03.909Z,45.90
2017-09-03T14:11:31.361Z,45.80
2017-09-03T14:13:59.597Z,46.70
2017-09-03T14:16:27.063Z,46.60
2017-09-03T14:18:54.647Z,48.60
2017-09-03T14:21:22.117Z,48.20
2017-09-03T14:23:49.587Z,47.70
2017-09-03T14:26:17.048Z,47.40
2017-09-03T14:28:44.506Z,47.20
2017-09-03T14:31:11.957Z,46.70
2017-09-03T14:33:39.435Z,46.10
2017-09-03T14:36:06.901Z,47.00
2017-09-03T14:38:34.400Z,46.40
2017-09-03T14:41:01.857Z,45.40
2017-09-03T14:43:29.309Z,45.60
2017-09-03T14:45:56.779Z,44.60
2017-09-03T14:48:24.322Z,43.80
2017-09-03T14:50:51.901Z,44.70
2017-09-03T14:53:19.437Z,46.30
2017-09-03T14:55:46.914Z,44.50
2017-09-03T14:58:14.453Z,44.70
2017-09-03T15:00:42.024Z,45.10
2017-09-03T15:03:09.477Z,45.10
2017-09-03T15:05:37.030Z,45.90
2017-09-03T15:08:04.591Z,45.20
2017-09-03T15:10:33.018Z,45.10
2017-09-03T15:13:00.503Z,44.90
2017-09-03T15:15:28.004Z,43.10
2017-09-03T15:17:59.238Z,43.10
2017-09-03T15:20:26.716Z,42.90
2017-09-03T15:22:54.171Z,44.30
2017-09-03T15:25:21.662Z,45.00
2017-09-03T15:27:49.187Z,45.10
2017-09-03T15:30:16.727Z,45.10
2017-09-03T15:32:44.381Z,45.80
2017-09-03T15:35:11.939Z,45.70
2017-09-03T15:37:39.414Z,46.60
2017-09-03T15:40:06.880Z,47.20
2017-09-03T15:42:34.402Z,47.50
2017-09-03T15:45:01.962Z,48.10
2017-09-03T15:47:29.426Z,47.90
2017-09-03T15:49:56.978Z,47.90
2017-09-03T15:52:24.446Z,48.30
2017-09-03T15:54:51.896Z,47.60
2017-09-03T15:57:19.447Z,48.20
2017-09-03T15:59:46.906Z,48.40
2017-09-03T16:02:14.379Z,49.50
2017-09-03T16:04:41.872Z,49.00
2017-09-03T16:07:09.361Z,49.60
2017-09-03T16:09:36.817Z,48.30
2017-09-03T16:12:04.399Z,48.30
2017-09-03T16:14:31.862Z,50.30
2017-09-03T16:16:59.322Z,51.90
2017-09-03T16:19:26.781Z,52.50
2017-09-03T16:21:54.323Z,54.80
2017-09-03T16:24:21.795Z,57.00
2017-09-03T16:26:49.252Z,57.70
2017-09-03T16:31:48.458Z,58.50
2017-09-03T16:34:16.014Z,56.80
2017-09-03T16:36:43.614Z,56.30
2017-09-03T16:39:11.081Z,55.20
2017-09-03T16:41:38.617Z,57.00
2017-09-03T16:44:06.144Z,55.70
2017-09-03T16:46:33.627Z,54.90
2017-09-03T16:49:01.113Z,53.80
2017-09-03T16:51:28.579Z,54.30
2017-09-03T16:53:56.063Z,54.90
2017-09-03T16:56:23.533Z,53.20
2017-09-03T16:58:51.009Z,53.20
2017-09-03T17:01:18.479Z,52.60
2017-09-03T17:03:45.961Z,51.70
2017-09-03T17:06:13.415Z,52.20
2017-09-03T17:08:40.878Z,53.30
2017-09-03T17:11:08.356Z,54.80
2017-09-03T17:13:35.830Z,55.80
2017-09-03T17:16:03.299Z,57.20
2017-09-03T17:18:30.776Z,58.10
2017-09-03T17:20:58.341Z,59.10
2017-09-03T17:23:25.807Z,59.70
2017-09-03T17:25:53.262Z,60.00
2017-09-03T17:28:20.724Z,61.50
2017-09-03T17:30:53.893Z,61.50
2017-09-03T17:33:22.136Z,62.50
2017-09-03T17:35:50.277Z,64.30
2017-09-03T17:41:36.637Z,64.00
2017-09-03T17:44:14.771Z,65.90
2017-09-03T17:46:45.831Z,65.90
2017-09-03T17:49:13.290Z,66.80
2017-09-03T17:51:40.753Z,66.80
2017-09-03T17:54:08.221Z,66.80
2017-09-03T17:56:35.685Z,66.60
2017-09-03T17:59:03.151Z,67.30
2017-09-03T18:01:30.609Z,68.20
2017-09-03T18:03:58.075Z,68.60
2017-09-03T18:06:25.529Z,68.50
2017-09-03T18:08:53.007Z,67.30
2017-09-03T18:11:20.478Z,68.60
2017-09-03T18:13:47.957Z,68.10
2017-09-03T18:16:15.412Z,68.80
2017-09-03T18:18:42.892Z,69.50
2017-09-03T18:21:10.355Z,69.80
2017-09-03T18:23:37.831Z,69.20
2017-09-03T18:26:05.282Z,68.90
2017-09-03T18:28:48.574Z,69.30
2017-09-03T18:31:16.025Z,69.50
2017-09-03T18:33:43.530Z,70.20
2017-09-03T18:36:26.662Z,70.30
2017-09-03T18:41:51.658Z,70.00
2017-09-03T18:44:29.015Z,70.70
2017-09-03T18:46:56.491Z,70.50
2017-09-03T18:49:26.549Z,70.50
2017-09-03T18:51:57.952Z,70.90
2017-09-03T18:54:27.938Z,71.60
2017-09-03T18:56:55.415Z,71.40
2017-09-03T19:02:24.434Z,70.90
2017-09-03T19:04:52.806Z,71.30
2017-09-03T19:07:20.245Z,71.30
2017-09-03T19:09:47.726Z,71.90
2017-09-03T19:12:15.181Z,71.80
2017-09-03T19:14:42.650Z,72.00
2017-09-03T19:17:10.114Z,71.90
2017-09-03T19:19:37.587Z,72.30
2017-09-03T19:22:05.050Z,72.80
2017-09-03T19:24:32.518Z,71.30
2017-09-03T19:27:00.002Z,71.60
2017-09-03T19:29:27.954Z,71.80
2017-09-03T19:31:55.703Z,71.80
2017-09-03T19:34:24.931Z,71.50
2017-09-03T19:36:52.522Z,71.90
2017-09-03T19:39:20.299Z,71.60
2017-09-03T19:41:48.087Z,71.50
2017-09-03T19:44:15.727Z,72.00
2017-09-03T19:46:43.299Z,71.70
2017-09-03T19:49:11.067Z,71.90
2017-09-03T19:51:38.545Z,72.00
2017-09-03T19:54:06.044Z,71.90
2017-09-03T19:56:33.522Z,72.30
2017-09-03T19:59:01.016Z,72.10
2017-09-03T20:01:28.626Z,72.20
2017-09-03T20:03:56.096Z,72.10
2017-09-03T20:06:23.567Z,71.80
2017-09-03T20:08:51.030Z,71.70
2017-09-03T20:11:18.530Z,71.90
2017-09-03T20:13:46.106Z,71.80
2017-09-03T20:16:13.664Z,71.50
2017-09-03T20:18:41.227Z,71.80
2017-09-03T20:21:08.703Z,71.50
2017-09-03T20:23:36.259Z,71.50
2017-09-03T20:26:03.735Z,71.30
2017-09-03T20:28:31.196Z,71.30
2017-09-03T20:30:58.671Z,71.60
2017-09-03T20:33:26.154Z,71.40
2017-09-03T20:35:53.722Z,71.40
2017-09-03T20:38:21.208Z,71.10
2017-09-03T20:40:48.875Z,71.20
2017-09-03T20:43:16.410Z,71.30
2017-09-03T20:45:44.070Z,71.50
2017-09-03T20:48:11.536Z,72.50
2017-09-03T20:50:39.075Z,71.10
2017-09-03T20:53:06.540Z,72.00
2017-09-03T20:55:34.024Z,72.00
2017-09-03T20:58:01.558Z,71.40
2017-09-03T21:00:29.081Z,71.40
2017-09-03T21:02:56.564Z,71.50
2017-09-03T21:05:24.033Z,71.20
2017-09-03T21:07:51.494Z,71.30
2017-09-03T21:10:18.967Z,71.30
2017-09-03T21:15:18.236Z,71.30
2017-09-03T21:17:45.798Z,71.10
2017-09-03T21:20:13.284Z,71.10
2017-09-03T21:22:40.759Z,71.40
2017-09-03T21:25:08.227Z,71.30
2017-09-03T21:27:35.758Z,71.40
2017-09-03T21:30:03.260Z,71.50
2017-09-03T21:32:30.732Z,71.60
2017-09-03T21:34:58.198Z,71.50
2017-09-03T21:37:25.771Z,71.60
2017-09-03T21:39:53.348Z,71.40
2017-09-03T21:42:20.860Z,71.40
2017-09-03T21:44:48.326Z,71.50
2017-09-03T21:47:15.802Z,71.40
2017-09-03T21:49:43.275Z,71.80
2017-09-03T21:52:10.831Z,72.50
2017-09-03T21:54:38.373Z,71.80
2017-09-03T21:57:05.860Z,71.80
2017-09-03T21:59:33.317Z,71.50
2017-09-03T22:02:00.841Z,71.60
2017-09-03T22:04:28.315Z,71.70
2017-09-03T22:06:55.802Z,71.50
2017-09-03T22:09:23.317Z,71.60
2017-09-03T22:11:50.878Z,71.70
2017-09-03T22:14:18.446Z,72.40
2017-09-03T22:16:45.906Z,71.30
2017-09-03T22:19:13.365Z,71.40
2017-09-03T22:21:40.843Z,71.80
2017-09-03T22:24:08.324Z,71.90
2017-09-03T22:26:35.826Z,72.10
2017-09-03T22:29:03.301Z,71.90
2017-09-03T22:31:30.769Z,71.80
2017-09-03T22:33:58.286Z,71.60
2017-09-03T22:36:25.851Z,71.80
2017-09-03T22:38:53.323Z,71.80
2017-09-03T22:41:20.861Z,71.90
2017-09-03T22:43:48.325Z,72.10
2017-09-03T22:46:15.808Z,72.10
2017-09-03T22:48:43.343Z,72.00
2017-09-03T22:51:10.820Z,72.00
2017-09-03T22:53:38.287Z,72.00
2017-09-03T22:56:05.823Z,71.80
2017-09-03T22:58:33.323Z,71.70
2017-09-03T23:01:00.914Z,71.90
2017-09-03T23:03:28.475Z,72.20
2017-09-03T23:05:56.037Z,72.40
2017-09-03T23:08:23.506Z,72.40
2017-09-03T23:10:50.978Z,72.40
2017-09-03T23:13:18.450Z,72.10
2017-09-03T23:15:45.911Z,72.30
2017-09-03T23:18:13.420Z,72.10
2017-09-03T23:20:40.977Z,72.30
2017-09-03T23:23:08.542Z,72.30
2017-09-03T23:25:36.000Z,72.30
2017-09-03T23:28:03.471Z,72.60
2017-09-03T23:30:31.018Z,72.40
2017-09-03T23:32:58.490Z,72.40
2017-09-03T23:35:26.039Z,72.40
2017-09-03T23:37:53.602Z,72.40
2017-09-03T23:40:21.084Z,73.20
2017-09-03T23:42:48.610Z,72.40
2017-09-03T23:45:16.170Z,72.30
2017-09-03T23:47:43.705Z,72.30
2017-09-03T23:50:11.170Z,72.20
2017-09-03T23:52:38.637Z,72.30
2017-09-03T23:55:06.098Z,72.40
2017-09-03T23:57:33.651Z,72.50
